Portada
METAR-TAF:

METAR-TAF

Aeroports :

Edimburg, Escòcia

latitud: 55-57N, longitud: 003-21W, altitud: 41 m

Observació

L'informe es va fer fa 33 minuts, a les 19:20 UTC
Vent 3 kt del Nord
Temperatura 16°C
Humitat 94%
Pressió 1017 hPa
Visibilitat 10 km o més
sense núvols per sota de 1500 mi sense presència de cumulonimbus.

METAR: EGPH 241920Z 01003KT CAVOK 16/15 Q1017

Hora: 20:53 (19:53 UTC)

Pronòstic

L'informe es va fer fa 3 hores i 0 minuts, a les 16:53 UTC
Pronòstic vàlid del 24 a les 18 UTC al 25 a les 18 UTC
Vent 5 kt del Est/Nord-Est
Visibilitat 10 km o més
sense núvols per sota de 1500 mi sense presència de cumulonimbus.
Temporalment
l' 24 a les 23 UTC al 25 a les 07 UTC
Visibilitat: 7000 m
Probabilitat 30%
l' 25 a les 03 UTC al 25 a les 07 UTC
Visibilitat: 2000 m
Cel ennuvolat a una alçada de 300 ft
boirina

TAF: EGPH 241653Z 2418/2518 06005KT CAVOK TEMPO 2423/2507 7000 PROB30 2503/2507 2000 BR BKN003

Observacions i pronòstics meteorològics de més de 4000 aeroports (METAR i TAF).

Les estacions disponibles són els punts grocs i vermells al mapa.

Posi el ratolí al punt desitjat per veure el nom de l'estació.

Feu clic per veure les observacions i els pronòstics meteorològics.

Per canviar el mapa: feu clic els botons verds amb una creu de color negre per apropar; al botó verd amb un guió per allunyar la imatge; o en les fletxes verdes per a mapes adjacents.


METAR-TAF: